• Join FlightAware (Why Join?)
  • Login
  • US Flag 
03:59AM EDT


 

Airport Tracker/Info


-or-


 

Live Flight TrackerFlight Track Log ✈ N929SR ✈ 17-May-2013 ✈ KSDL - KLAX

Flight Track Log - Related Links

Times and Time Zones

All times are in EDT time to prevent confusion due to time zone crossing. See the N929SR flight status page for this flight to view local times or setup timezone preferences in your user account.

Time Position Orientation Groundspeed Altitude Reporting Facility
EDT Latitude Longitude Course Direction KTS MPH feet Rate Location/Type
07:00PM 33.6000 -111.9333 292° West 187 215 2,200  Level Phoenix TRACON
07:01PM 33.6167 -111.9833 292° West 189 217 4,100 2,520 Climbing Phoenix TRACON
07:02PM 33.6089 -112.0592 263° West 217 250 7,600 3,240 Climbing Albuquerque Center
07:03PM 33.5633 -112.1286 232° Southwest 264 304 11,400 3,600 Climbing Albuquerque Center
07:04PM 33.5125 -112.2047 231° Southwest 291 335 15,000 3,000 Climbing Albuquerque Center
07:05PM 33.4569 -112.2894 232° Southwest 319 367 17,600 2,460 Climbing Albuquerque Center
07:06PM 33.4333 -112.3969 255° West 353 406 20,200 2,700 Climbing Albuquerque Center
07:07PM 33.4400 -112.5131 274° West 350 403 23,200 2,280 Climbing Albuquerque Center
07:08PM 33.4456 -112.6381 273° West 356 410 24,900 1,920 Climbing Albuquerque Center
07:09PM 33.4533 -112.8019 273° West 403 464 27,200 2,520 Climbing Albuquerque Center
07:10PM 33.4922 -112.9319 290° West 419 482 30,100 2,340 Climbing Albuquerque Center
07:11PM 33.5381 -113.0558 294° West 412 474 32,000 900 Climbing Albuquerque Center
07:12PM 33.5842 -113.1892 293° West 427 491 32,000  Level Albuquerque Center
07:13PM 33.6306 -113.3211 293° West 437 503 32,000  Level Albuquerque Center
07:14PM 33.6792 -113.4581 293° West 443 510 32,000  Level Albuquerque Center
07:15PM 33.7275 -113.5950 293° West 444 511 32,000  Level Albuquerque Center
07:16PM 33.7844 -113.7603 293° West 446 513 32,000  Level Albuquerque Center
07:17PM 33.8322 -113.8967 293° West 445 512 32,000 -60 Level Albuquerque Center
07:18PM 33.8761 -114.0306 292° West 440 506 31,900  Descending Albuquerque Center
07:19PM 33.9194 -114.1583 292° West 427 491 32,000  Climbing Albuquerque Center
07:20PM 33.9667 -114.2839 294° West 417 480 32,000 -60 Level Albuquerque Center
07:21PM 34.0108 -114.4092 293° West 413 475 31,900  Descending Albuquerque Center
07:22PM 34.0528 -114.5372 292° West 410 472 32,000  Climbing Albuquerque Center
07:24PM 34.1089 -114.7056 292° West 412 474 32,000 -60 Level Los Angeles Center
07:25PM 34.1494 -114.8369 290° West 419 482 31,900  Descending Los Angeles Center
07:26PM 34.1917 -114.9658 292° West 416 479 32,000  Climbing Los Angeles Center
07:27PM 34.2436 -115.1231 292° West 420 483 32,000  Level Los Angeles Center
07:28PM 34.2847 -115.2511 291° West 413 475 32,000 -60 Level Los Angeles Center
07:29PM 34.3256 -115.3783 291° West 409 471 31,900 -540 Descending Los Angeles Center
07:30PM 34.3469 -115.4942 283° West 362 417 31,000 -1,440 Descending Los Angeles Center
07:31PM 34.2894 -115.5914 234° Southwest 359 413 29,000 -2,040 Descending Los Angeles Center
07:32PM 34.2592 -115.7267 255° West 345 397 26,900 -1,800 Descending Los Angeles Center
07:33PM 34.2369 -115.8339 256° West 333 383 25,300 -1,440 Descending Los Angeles Center
07:34PM 34.2139 -115.9397 255° West 323 372 24,000 -660 Descending Los Angeles Center
07:35PM 34.1914 -116.0442 255° West 323 372 24,000  Level Los Angeles Center
07:36PM 34.1689 -116.1472 255° West 318 366 24,000  Level Los Angeles Center
07:37PM 34.1472 -116.2478 255° West 314 361 24,000  Level Los Angeles Center
07:38PM 34.1200 -116.3697 255° West 321 369 24,000 -240 Level Los Angeles Center
07:39PM 34.0964 -116.4756 255° West 328 377 23,600 -780 Descending Los Angeles Center
07:40PM 34.0731 -116.5828 255° West 331 381 22,500 -1,200 Descending Los Angeles Center
07:41PM 34.0481 -116.6978 255° West 352 405 21,200 -1,080 Descending Los Angeles Center
07:42PM 34.0253 -116.7936 254° West 302 348 20,300 -1,080 Descending Los Angeles Center
07:43PM 34.0003 -116.9106 256° West 300 345 19,000 -1,200 Descending Los Angeles Center
07:44PM 33.9833 -116.9667 250° West 298 343 18,500 -1,020 Descending Southern California TRACON
07:45PM 33.9667 -117.0667 259° West 305 351 17,500 -1,140 Descending Southern California TRACON
07:46PM 33.9500 -117.1667 259° West 296 341 16,300 -1,260 Descending Southern California TRACON
07:47PM 33.9333 -117.2667 259° West 290 334 14,900 -1,140 Descending Southern California TRACON
07:48PM 33.9333 -117.3667 270° West 284 327 14,000 -480 Descending Southern California TRACON
07:49PM 33.9500 -117.4500 284° West 279 321 14,000 -420 Level Southern California TRACON
07:50PM 33.9833 -117.5333 296° West 279 321 13,200 -1,440 Descending Southern California TRACON
07:51PM 34.0167 -117.6333 292° West 337 388 11,000 -1,740 Descending Southern California TRACON
07:52PM 34.0000 -117.7167 256° West 264 304 9,800 -1,140 Descending Southern California TRACON
07:53PM 34.0000 -117.8000 270° West 269 310 8,800 -960 Descending Southern California TRACON
07:54PM 33.9833 -117.8833 256° West 223 257 7,900 -900 Descending Southern California TRACON
07:55PM 33.9833 -117.9500 270° West 220 253 7,100 -900 Descending Southern California TRACON
07:56PM 33.9667 -118.0333 256° West 217 250 6,100 -1,200 Descending Southern California TRACON
07:57PM 33.9667 -118.1000 270° West 219 252 4,700 -1,200 Descending Southern California TRACON
07:58PM 33.9614 -118.1517 263° West 217 250 3,900 -1,080 Descending Los Angeles Center
07:59PM 33.9542 -118.2294 264° West 203 234 2,700 -1,080 Descending Los Angeles Center
08:00PM 33.9475 -118.2867 262° West 187 215 1,700 -900 Descending Los Angeles Center
08:01PM 33.9436 -118.3342 264° West 164 189 900 -720 Descending Los Angeles Center
08:02PM 33.9386 -118.3803 263° West 149 171 300 -600 Descending Los Angeles Center
08:04PM 33.9333 -118.4000 270° West  Level FlightAware Approximate
08:11PM 33.9425 -118.4081 270° West  Level Estimated